Terminal Aerodrome Forecast
Issued by NWS

Home | Current Version | Previous Version | Text Only | Print | Product List | Glossary On
Versions: 1 2 3 4 5 6 7 8 9 10 11 12
000
FTUS45 KABQ 300541
TAFFMN
TAF
KFMN 300541Z 3006/3106 12007KT P6SM FEW090 BKN130
     FM300800 09008KT P6SM BKN110
     FM301700 12008KT P6SM FEW060 BKN100
     FM302100 19008KT P6SM VCSH SCT060 BKN090
     FM310200 12010KT P6SM SCT060 BKN090=

USA.gov is the U.S. government's official web portal to all federal, state and local government web resources and services.